Time;durP1;ratioP1;P1;durP2;ratioP2;P2;SDS_P1;SDS_P2;PMS_P1;PMS_P2;Temp;Humidity;BMP_temperature;BMP_pressure;BME280_temperature;BME280_humidity;BME280_pressure;Samples;Min_cycle;Max_cycle;Signal;HPM_P1;HPM_P2
2022/01/23 00:04:52;;;;;;;3.85;1.35;;;;;;;;;;7336858;19;20013;-58
2022/01/23 00:07:18;;;;;;;3.35;1.20;;;;;;;;;;7362985;19;20873;-51
2022/01/23 00:09:43;;;;;;;3.53;1.30;;;;;;;;;;7373856;19;20570;-56
2022/01/23 00:12:13;;;;;;;4.10;1.40;;;;;;;;;;7371473;19;20015;-58
2022/01/23 00:17:24;;;;;;;3.88;1.55;;;;;;;;;;7368117;19;20013;-53
2022/01/23 00:19:50;;;;;;;3.90;1.48;;;;;;;;;;7371385;19;20017;-62
2022/01/23 00:22:17;;;;;;;4.40;1.30;;;;;;;;;;7349855;19;20006;-53
2022/01/23 00:32:47;;;;;;;5.43;1.30;;;;;;;;;;7382411;19;20018;-54
2022/01/23 00:35:14;;;;;;;3.50;1.23;;;;;;;;;;7381964;19;20033;-54
2022/01/23 00:37:39;;;;;;;4.25;1.60;;;;;;;;;;7379524;19;20014;-58
2022/01/23 00:40:05;;;;;;;2.95;1.17;;;;;;;;;;7372326;19;20018;-57
2022/01/23 00:42:30;;;;;;;4.32;1.67;;;;;;;;;;7374063;19;19994;-56
2022/01/23 00:45:06;;;;;;;3.67;1.40;;;;;;;;;;7381444;19;20010;-54
2022/01/23 00:47:33;;;;;;;4.45;1.58;;;;;;;;;;7383019;19;20078;-57
2022/01/23 00:49:58;;;;;;;3.70;1.35;;;;;;;;;;7381292;19;20020;-53
2022/01/23 00:52:24;;;;;;;4.30;1.45;;;;;;;;;;7374074;19;20435;-59
2022/01/23 00:54:50;;;;;;;4.57;1.60;;;;;;;;;;7379270;19;20018;-52
2022/01/23 00:57:15;;;;;;;3.53;1.42;;;;;;;;;;7375215;19;20259;-57
2022/01/23 00:59:40;;;;;;;3.63;1.30;;;;;;;;;;7373996;19;20398;-58
2022/01/23 01:02:05;;;;;;;3.60;1.37;;;;;;;;;;7369061;19;20419;-51
2022/01/23 01:04:31;;;;;;;3.60;1.33;;;;;;;;;;7379751;19;20014;-59
2022/01/23 01:06:56;;;;;;;3.70;1.40;;;;;;;;;;7379627;19;20244;-54
2022/01/23 01:09:29;;;;;;;3.53;1.33;;;;;;;;;;7380983;19;20243;-54
2022/01/23 01:12:05;;;;;;;4.00;1.35;;;;;;;;;;7377214;19;20264;-55
2022/01/23 01:14:59;;;;;;;3.65;1.48;;;;;;;;;;7381980;19;20011;-51
2022/01/23 01:33:41;;;;;;;3.07;1.30;;;;;;;;;;7385123;19;20823;-53
2022/01/23 01:36:25;;;;;;;3.13;1.27;;;;;;;;;;7370393;19;21094;-54
2022/01/23 01:38:50;;;;;;;3.95;1.30;;;;;;;;;;7374160;19;20039;-59
2022/01/23 01:41:18;;;;;;;3.33;1.15;;;;;;;;;;7371031;19;20397;-58
2022/01/23 01:43:43;;;;;;;3.30;1.25;;;;;;;;;;7381125;19;20018;-52
2022/01/23 01:46:08;;;;;;;3.45;1.13;;;;;;;;;;7381432;19;20031;-54
2022/01/23 01:48:34;;;;;;;3.53;1.20;;;;;;;;;;7379755;19;20012;-52
2022/01/23 01:51:00;;;;;;;3.37;1.17;;;;;;;;;;7379171;19;20304;-61
2022/01/23 01:53:25;;;;;;;3.78;1.00;;;;;;;;;;7380060;19;20281;-60
2022/01/23 01:55:54;;;;;;;3.55;1.15;;;;;;;;;;7370586;19;20459;-57
2022/01/23 02:01:10;;;;;;;;;;;;;;;;;;7376017;19;20030;-60
2022/01/23 02:09:10;;;;;;;;;;;;;;;;;;7373599;19;20013;-53
2022/01/23 02:25:16;;;;;;;2.53;1.00;;;;;;;;;;7376919;19;20014;-55
2022/01/23 02:55:11;;;;;;;;;;;;;;;;;;7358932;19;20017;-55
2022/01/23 03:00:12;;;;;;;2.90;1.17;;;;;;;;;;7370530;19;20006;-53
2022/01/23 03:02:43;;;;;;;4.32;1.13;;;;;;;;;;7362543;19;20014;-59
2022/01/23 03:05:13;;;;;;;3.55;1.30;;;;;;;;;;7376722;19;20045;-57
2022/01/23 03:10:19;;;;;;;2.65;1.00;;;;;;;;;;7371707;19;20467;-53
2022/01/23 03:15:24;;;;;;;3.50;1.20;;;;;;;;;;7371812;19;20002;-53
2022/01/23 03:26:14;;;;;;;3.08;1.10;;;;;;;;;;7367412;19;19918;-54
2022/01/23 03:31:28;;;;;;;2.78;1.10;;;;;;;;;;7375918;19;20038;-54
2022/01/23 03:33:53;;;;;;;2.78;1.10;;;;;;;;;;7368406;19;20021;-60
2022/01/23 03:36:19;;;;;;;3.63;1.10;;;;;;;;;;7361808;19;20015;-55
2022/01/23 03:38:44;;;;;;;3.30;1.27;;;;;;;;;;7376207;19;19998;-57
2022/01/23 03:41:10;;;;;;;3.17;1.10;;;;;;;;;;7367521;19;20010;-56
2022/01/23 03:43:38;;;;;;;2.65;1.08;;;;;;;;;;7377046;19;20018;-49
2022/01/23 03:51:15;;;;;;;3.00;1.00;;;;;;;;;;7367540;19;20032;-51
2022/01/23 03:53:40;;;;;;;3.05;1.05;;;;;;;;;;7375787;19;20031;-55
2022/01/23 03:56:06;;;;;;;3.17;1.17;;;;;;;;;;7367919;19;19995;-51
2022/01/23 03:58:31;;;;;;;2.28;0.93;;;;;;;;;;7362913;19;20022;-54
2022/01/23 04:00:57;;;;;;;3.83;1.10;;;;;;;;;;7360560;19;20039;-56
2022/01/23 04:03:22;;;;;;;2.50;1.00;;;;;;;;;;7377705;19;19998;-55
2022/01/23 04:05:47;;;;;;;2.85;1.10;;;;;;;;;;7379924;19;20267;-49
2022/01/23 04:08:15;;;;;;;2.63;1.00;;;;;;;;;;7383847;19;20014;-55
2022/01/23 04:13:19;;;;;;;2.58;1.10;;;;;;;;;;7382297;19;20477;-58
2022/01/23 04:16:14;;;;;;;3.75;1.10;;;;;;;;;;7375842;19;20017;-57
2022/01/23 04:32:23;;;;;;;2.78;1.00;;;;;;;;;;7378015;19;20017;-55
2022/01/23 04:35:10;;;;;;;4.47;1.30;;;;;;;;;;7380088;19;20005;-59
2022/01/23 04:45:39;;;;;;;2.78;1.00;;;;;;;;;;7381310;19;20082;-58
2022/01/23 05:04:21;;;;;;;3.17;1.08;;;;;;;;;;7381446;19;20435;-59
2022/01/23 05:06:58;;;;;;;3.65;1.23;;;;;;;;;;7365403;19;20010;-53
2022/01/23 05:09:23;;;;;;;3.10;1.20;;;;;;;;;;7369947;19;20022;-55
2022/01/23 05:11:51;;;;;;;3.22;1.27;;;;;;;;;;7380606;19;20011;-51
2022/01/23 05:14:26;;;;;;;2.50;0.90;;;;;;;;;;7377649;19;20015;-54
2022/01/23 05:16:51;;;;;;;3.42;1.23;;;;;;;;;;7379962;19;20022;-54
2022/01/23 05:19:16;;;;;;;2.63;1.03;;;;;;;;;;7361975;19;20137;-57
2022/01/23 05:22:02;;;;;;;1.93;0.83;;;;;;;;;;7375697;19;20561;-59
2022/01/23 05:24:33;;;;;;;3.17;1.10;;;;;;;;;;7357148;19;20256;-57
2022/01/23 05:26:59;;;;;;;3.15;1.08;;;;;;;;;;7370531;19;20019;-57
2022/01/23 05:29:24;;;;;;;3.72;1.30;;;;;;;;;;7377551;19;20315;-58
2022/01/23 05:31:51;;;;;;;4.07;1.30;;;;;;;;;;7375511;19;20011;-55
2022/01/23 05:34:16;;;;;;;2.63;0.85;;;;;;;;;;7378502;19;20246;-53
2022/01/23 05:36:41;;;;;;;2.27;0.90;;;;;;;;;;7367821;19;20320;-62
2022/01/23 05:39:06;;;;;;;3.00;1.30;;;;;;;;;;7365363;19;20704;-54
2022/01/23 05:41:32;;;;;;;3.05;1.20;;;;;;;;;;7372376;19;20271;-57
2022/01/23 05:43:57;;;;;;;1.83;0.90;;;;;;;;;;7379704;19;19995;-53
2022/01/23 05:46:22;;;;;;;3.10;1.08;;;;;;;;;;7376699;19;20018;-55
2022/01/23 05:48:48;;;;;;;2.60;1.00;;;;;;;;;;7362906;19;19998;-55
2022/01/23 05:51:13;;;;;;;3.15;1.10;;;;;;;;;;7378865;19;20011;-61
2022/01/23 05:53:39;;;;;;;2.30;0.85;;;;;;;;;;7369737;19;20014;-53
2022/01/23 05:56:05;;;;;;;2.20;0.98;;;;;;;;;;7367927;19;20030;-52
2022/01/23 05:58:30;;;;;;;2.13;0.98;;;;;;;;;;7378764;19;20365;-57
2022/01/23 06:00:55;;;;;;;2.40;0.90;;;;;;;;;;7369169;19;20010;-59
2022/01/23 06:03:21;;;;;;;2.92;1.02;;;;;;;;;;7371182;19;20034;-60
2022/01/23 06:05:46;;;;;;;3.28;1.25;;;;;;;;;;7370452;19;20023;-60
2022/01/23 06:08:11;;;;;;;2.75;1.05;;;;;;;;;;7365490;19;20492;-56
2022/01/23 06:13:08;;;;;;;3.30;1.10;;;;;;;;;;7377411;19;20011;-53
2022/01/23 06:15:33;;;;;;;2.93;1.10;;;;;;;;;;7374186;19;20385;-54
2022/01/23 06:17:58;;;;;;;2.92;1.10;;;;;;;;;;7365346;19;20007;-54
2022/01/23 06:20:24;;;;;;;2.65;1.08;;;;;;;;;;7373941;19;20358;-63
2022/01/23 06:22:49;;;;;;;2.65;0.90;;;;;;;;;;7371447;19;20122;-55
2022/01/23 06:25:16;;;;;;;2.33;1.00;;;;;;;;;;7366755;19;20313;-61
2022/01/23 06:27:41;;;;;;;3.25;1.15;;;;;;;;;;7371861;19;20486;-56
2022/01/23 06:30:07;;;;;;;2.38;0.88;;;;;;;;;;7377569;19;20112;-57
2022/01/23 06:32:33;;;;;;;2.35;0.90;;;;;;;;;;7372838;19;20049;-56
2022/01/23 06:34:58;;;;;;;2.22;0.90;;;;;;;;;;7363665;19;20020;-54
2022/01/23 06:37:23;;;;;;;2.92;1.10;;;;;;;;;;7379459;19;20018;-51
2022/01/23 06:42:20;;;;;;;2.90;1.25;;;;;;;;;;7368789;19;20295;-55
2022/01/23 06:44:45;;;;;;;3.03;1.10;;;;;;;;;;7377708;19;20364;-55
2022/01/23 06:47:10;;;;;;;3.65;1.25;;;;;;;;;;7362098;19;20028;-56
2022/01/23 06:49:36;;;;;;;2.83;1.00;;;;;;;;;;7377999;19;20356;-60
2022/01/23 06:52:01;;;;;;;3.23;1.00;;;;;;;;;;7375554;19;20011;-53
2022/01/23 06:54:27;;;;;;;2.78;0.90;;;;;;;;;;7360387;19;20262;-53
2022/01/23 06:56:53;;;;;;;2.65;1.15;;;;;;;;;;7376832;19;20030;-56
2022/01/23 06:59:18;;;;;;;3.13;1.05;;;;;;;;;;7368832;19;20045;-60
2022/01/23 07:01:43;;;;;;;1.95;0.80;;;;;;;;;;7367667;19;21046;-60
2022/01/23 07:04:08;;;;;;;1.95;0.80;;;;;;;;;;7373255;19;20014;-54
2022/01/23 07:06:34;;;;;;;2.85;1.00;;;;;;;;;;7375537;19;20003;-63
2022/01/23 07:08:59;;;;;;;2.72;1.13;;;;;;;;;;7351054;19;20353;-56
2022/01/23 07:11:24;;;;;;;2.90;1.03;;;;;;;;;;7375616;19;20475;-53
2022/01/23 07:13:49;;;;;;;2.40;0.90;;;;;;;;;;7373456;19;20251;-60
2022/01/23 07:16:15;;;;;;;1.73;0.73;;;;;;;;;;7376375;19;20260;-60
2022/01/23 07:18:40;;;;;;;2.40;0.90;;;;;;;;;;7368572;19;20254;-58
2022/01/23 07:21:05;;;;;;;2.65;1.05;;;;;;;;;;7376034;19;20019;-52
2022/01/23 07:23:31;;;;;;;2.37;1.00;;;;;;;;;;7374119;19;20007;-55
2022/01/23 07:25:56;;;;;;;2.10;0.88;;;;;;;;;;7362798;19;20968;-59
2022/01/23 07:28:25;;;;;;;2.05;0.80;;;;;;;;;;7366269;19;19991;-52
2022/01/23 07:30:58;;;;;;;3.13;1.10;;;;;;;;;;7368318;19;20049;-57
2022/01/23 07:33:24;;;;;;;2.65;0.80;;;;;;;;;;7377389;19;20014;-55
2022/01/23 07:35:49;;;;;;;2.63;0.93;;;;;;;;;;7374555;19;20636;-53
2022/01/23 07:38:17;;;;;;;2.00;0.90;;;;;;;;;;7358083;19;20034;-53
2022/01/23 07:40:51;;;;;;;3.25;0.95;;;;;;;;;;7371026;19;20511;-56
2022/01/23 07:43:16;;;;;;;;;;;;;;;;;;7376753;19;20015;-56
2022/01/23 07:45:41;;;;;;;2.33;0.83;;;;;;;;;;7384236;19;19943;-50
2022/01/23 07:48:07;;;;;;;2.37;0.97;;;;;;;;;;7379828;19;20369;-53
2022/01/23 07:50:32;;;;;;;2.20;0.85;;;;;;;;;;7372428;19;20702;-57
2022/01/23 07:52:57;;;;;;;2.67;0.98;;;;;;;;;;7373437;19;20522;-55
2022/01/23 07:55:22;;;;;;;2.67;1.00;;;;;;;;;;7369377;19;20332;-51
2022/01/23 07:57:48;;;;;;;2.85;1.25;;;;;;;;;;7372703;19;20315;-51
2022/01/23 08:00:13;;;;;;;2.93;1.07;;;;;;;;;;7380160;19;20846;-52
2022/01/23 08:02:39;;;;;;;2.53;0.85;;;;;;;;;;7373923;19;20713;-61
2022/01/23 08:05:04;;;;;;;2.72;1.02;;;;;;;;;;7380791;19;20010;-53
2022/01/23 08:09:56;;;;;;;2.70;1.00;;;;;;;;;;7367373;19;20315;-59
2022/01/23 08:12:21;;;;;;;2.72;1.00;;;;;;;;;;7372224;19;20014;-56
2022/01/23 08:14:47;;;;;;;2.78;1.00;;;;;;;;;;7371792;19;20014;-55
2022/01/23 08:17:12;;;;;;;2.22;0.90;;;;;;;;;;7384619;19;20100;-50
2022/01/23 08:19:37;;;;;;;2.90;0.90;;;;;;;;;;7377005;19;20015;-56
2022/01/23 08:22:02;;;;;;;2.13;0.80;;;;;;;;;;7381065;19;20026;-61
2022/01/23 08:24:28;;;;;;;2.70;1.20;;;;;;;;;;7373248;19;20015;-54
2022/01/23 08:26:53;;;;;;;2.33;0.90;;;;;;;;;;7381578;19;20014;-52
2022/01/23 08:29:18;;;;;;;2.30;0.90;;;;;;;;;;7372756;19;20002;-53
2022/01/23 08:31:45;;;;;;;2.97;1.10;;;;;;;;;;7380288;19;20384;-52
2022/01/23 08:34:10;;;;;;;2.25;0.90;;;;;;;;;;7379583;19;20247;-55
2022/01/23 08:36:36;;;;;;;2.75;0.93;;;;;;;;;;7382404;19;20014;-56
2022/01/23 08:39:02;;;;;;;2.08;0.80;;;;;;;;;;7364684;19;20275;-52
2022/01/23 08:44:11;;;;;;;2.97;1.10;;;;;;;;;;7377212;19;20919;-58
2022/01/23 08:46:36;;;;;;;1.75;0.85;;;;;;;;;;7382114;19;20010;-56
2022/01/23 08:49:02;;;;;;;2.75;1.08;;;;;;;;;;7367901;19;19998;-59
2022/01/23 08:51:27;;;;;;;2.22;0.90;;;;;;;;;;7382410;19;20014;-54
2022/01/23 08:53:52;;;;;;;2.97;1.00;;;;;;;;;;7372562;19;20005;-60
2022/01/23 08:56:17;;;;;;;2.35;0.90;;;;;;;;;;7366559;19;20006;-54
2022/01/23 08:58:43;;;;;;;2.97;1.10;;;;;;;;;;7373544;19;20398;-57
2022/01/23 09:01:08;;;;;;;3.15;1.00;;;;;;;;;;7371219;19;20014;-54
2022/01/23 09:03:33;;;;;;;2.20;1.00;;;;;;;;;;7381824;19;20014;-54
2022/01/23 09:05:58;;;;;;;3.28;1.00;;;;;;;;;;7379471;19;20462;-55
2022/01/23 09:08:24;;;;;;;3.13;1.20;;;;;;;;;;7371576;19;20011;-52
2022/01/23 09:10:57;;;;;;;3.05;1.20;;;;;;;;;;7365294;19;20869;-63
2022/01/23 09:13:54;;;;;;;2.70;0.98;;;;;;;;;;7379929;19;20879;-51
2022/01/23 09:16:11;;;;;;;2.60;1.00;;;;;;;;;;7362094;19;20438;-54
2022/01/23 09:18:36;;;;;;;3.08;1.10;;;;;;;;;;7380571;19;20014;-53
2022/01/23 09:21:02;;;;;;;2.80;1.10;;;;;;;;;;7377899;19;20042;-53
2022/01/23 09:23:27;;;;;;;3.20;1.20;;;;;;;;;;7372465;19;20026;-63
2022/01/23 09:25:56;;;;;;;3.17;1.00;;;;;;;;;;7362826;19;20014;-60
2022/01/23 09:28:30;;;;;;;2.47;1.00;;;;;;;;;;7379632;19;20014;-56
2022/01/23 09:30:55;;;;;;;2.28;0.90;;;;;;;;;;7367982;19;20007;-50
2022/01/23 09:33:20;;;;;;;2.10;0.90;;;;;;;;;;7377351;19;20031;-56
2022/01/23 09:35:46;;;;;;;2.47;0.90;;;;;;;;;;7374661;19;20619;-56
2022/01/23 09:38:11;;;;;;;2.20;0.98;;;;;;;;;;7370503;19;20334;-61
2022/01/23 09:43:15;;;;;;;2.83;1.02;;;;;;;;;;7375280;19;20022;-55
2022/01/23 09:45:41;;;;;;;2.15;0.90;;;;;;;;;;7380236;19;20038;-54
2022/01/23 09:48:06;;;;;;;2.58;0.93;;;;;;;;;;7375169;19;20621;-52
2022/01/23 09:50:32;;;;;;;2.85;1.10;;;;;;;;;;7354967;19;20107;-54
2022/01/23 09:52:58;;;;;;;3.53;0.80;;;;;;;;;;7381818;19;20092;-52
2022/01/23 09:55:25;;;;;;;2.28;0.90;;;;;;;;;;7366755;19;20002;-56
2022/01/23 09:57:51;;;;;;;2.22;0.95;;;;;;;;;;7379153;19;20019;-53
2022/01/23 10:00:18;;;;;;;2.13;0.70;;;;;;;;;;7363139;19;20037;-58
2022/01/23 10:02:43;;;;;;;2.58;0.90;;;;;;;;;;7367253;19;20014;-54
2022/01/23 10:05:09;;;;;;;2.65;0.93;;;;;;;;;;7376936;19;20017;-51
2022/01/23 10:07:38;;;;;;;3.38;1.15;;;;;;;;;;7377217;19;19994;-53
2022/01/23 10:10:10;;;;;;;2.25;0.90;;;;;;;;;;7358233;19;20316;-50
2022/01/23 10:12:43;;;;;;;2.88;1.10;;;;;;;;;;7352720;19;20201;-56
2022/01/23 10:15:08;;;;;;;2.40;0.82;;;;;;;;;;7378986;19;20010;-58
2022/01/23 10:17:34;;;;;;;2.80;0.98;;;;;;;;;;7364444;19;20060;-53
2022/01/23 10:20:00;;;;;;;2.13;0.82;;;;;;;;;;7377793;19;20014;-51
2022/01/23 10:22:25;;;;;;;3.15;1.05;;;;;;;;;;7374470;19;19994;-55
2022/01/23 10:24:50;;;;;;;2.55;0.90;;;;;;;;;;7370501;19;20014;-56
2022/01/23 10:27:17;;;;;;;2.65;1.15;;;;;;;;;;7374571;19;20014;-52
2022/01/23 10:29:46;;;;;;;2.65;0.95;;;;;;;;;;7374969;19;20014;-57
2022/01/23 10:32:18;;;;;;;2.35;1.00;;;;;;;;;;7368007;19;20052;-60
2022/01/23 10:34:43;;;;;;;2.90;1.02;;;;;;;;;;7376893;19;20006;-59
2022/01/23 10:37:09;;;;;;;2.17;0.90;;;;;;;;;;7375984;19;20025;-55
2022/01/23 10:39:42;;;;;;;2.55;1.00;;;;;;;;;;7365666;19;20362;-48
2022/01/23 10:47:49;;;;;;;3.72;1.77;;;;;;;;;;7348373;19;20124;-55
2022/01/23 10:50:14;;;;;;;2.17;0.90;;;;;;;;;;7378004;19;20581;-53
2022/01/23 10:52:40;;;;;;;2.05;0.70;;;;;;;;;;7357274;19;20011;-56
2022/01/23 10:55:26;;;;;;;2.22;1.00;;;;;;;;;;7361905;19;20025;-57
2022/01/23 10:57:54;;;;;;;3.88;1.40;;;;;;;;;;7342108;19;20028;-54
2022/01/23 11:00:25;;;;;;;5.82;1.20;;;;;;;;;;7364032;19;20025;-52
2022/01/23 11:02:50;;;;;;;5.63;1.25;;;;;;;;;;7329575;19;20042;-62
2022/01/23 11:05:18;;;;;;;3.45;1.10;;;;;;;;;;7364810;19;20005;-63
2022/01/23 11:07:44;;;;;;;4.15;1.67;;;;;;;;;;7333113;19;20064;-61
2022/01/23 11:18:04;;;;;;;5.05;2.33;;;;;;;;;;7371019;19;20009;-56
2022/01/23 11:20:31;;;;;;;4.43;1.65;;;;;;;;;;7382409;19;20010;-55
2022/01/23 11:23:03;;;;;;;5.85;1.65;;;;;;;;;;7374222;19;20010;-56
2022/01/23 11:25:28;;;;;;;4.47;1.50;;;;;;;;;;7374490;19;20017;-57
2022/01/23 11:28:00;;;;;;;6.83;2.60;;;;;;;;;;7362272;19;20391;-58
2022/01/23 11:30:33;;;;;;;4.35;1.38;;;;;;;;;;7369555;19;20239;-59
2022/01/23 11:32:59;;;;;;;3.55;1.67;;;;;;;;;;7367593;19;20003;-62
2022/01/23 11:35:26;;;;;;;5.10;1.65;;;;;;;;;;7366964;19;20023;-52
2022/01/23 11:37:52;;;;;;;3.75;1.60;;;;;;;;;;7383081;19;20046;-52
2022/01/23 11:53:45;;;;;;;5.63;1.45;;;;;;;;;;7362751;19;20037;-64
2022/01/23 11:54:06;;;;;;;3.60;1.30;;;;;;;;;;7370088;19;20871;-55
2022/01/23 11:56:37;;;;;;;6.75;1.60;;;;;;;;;;7343807;19;20007;-60
2022/01/23 11:59:28;;;;;;;3.90;1.52;;;;;;;;;;7365057;19;20320;-57
2022/01/23 12:02:10;;;;;;;3.10;1.30;;;;;;;;;;7368928;19;20014;-55
2022/01/23 12:04:35;;;;;;;4.40;1.45;;;;;;;;;;7378767;19;20005;-59
2022/01/23 12:07:04;;;;;;;3.88;1.33;;;;;;;;;;7359884;19;20048;-56
2022/01/23 12:09:29;;;;;;;3.60;1.30;;;;;;;;;;7368984;19;20018;-60
2022/01/23 12:18:11;;;;;;;4.18;1.50;;;;;;;;;;7375076;19;20026;-56
2022/01/23 12:20:36;;;;;;;9.73;2.10;;;;;;;;;;7364860;19;20025;-63
2022/01/23 12:23:02;;;;;;;5.20;1.85;;;;;;;;;;7374834;19;20707;-56
2022/01/23 12:25:28;;;;;;;5.18;1.58;;;;;;;;;;7372218;19;20018;-61
2022/01/23 12:28:10;;;;;;;4.65;1.65;;;;;;;;;;7379914;19;20010;-57
2022/01/23 12:30:36;;;;;;;3.53;1.50;;;;;;;;;;7367453;19;20497;-59
2022/01/23 12:33:16;;;;;;;3.70;1.70;;;;;;;;;;7381847;19;20014;-61
2022/01/23 12:35:43;;;;;;;6.35;1.40;;;;;;;;;;7345424;19;20033;-55
2022/01/23 12:38:10;;;;;;;4.32;1.30;;;;;;;;;;7355429;19;20085;-54
2022/01/23 12:43:12;;;;;;;5.38;1.80;;;;;;;;;;7370318;19;20032;-55
2022/01/23 12:45:49;;;;;;;5.53;1.98;;;;;;;;;;7378610;19;20018;-62
2022/01/23 12:48:27;;;;;;;5.90;1.83;;;;;;;;;;7372869;19;20094;-57
2022/01/23 12:50:58;;;;;;;6.93;2.67;;;;;;;;;;7353820;19;20651;-61
2022/01/23 12:53:34;;;;;;;9.93;2.78;;;;;;;;;;7199442;19;20011;-51
2022/01/23 12:56:01;;;;;;;16.40;3.55;;;;;;;;;;7317077;19;86481;-62
2022/01/23 12:58:27;;;;;;;12.50;2.72;;;;;;;;;;7314054;19;20022;-59
2022/01/23 13:00:52;;;;;;;11.27;2.67;;;;;;;;;;7362023;19;20851;-59
2022/01/23 13:03:23;;;;;;;10.60;2.80;;;;;;;;;;7363473;19;20467;-59
2022/01/23 13:05:48;;;;;;;9.77;3.00;;;;;;;;;;7261683;19;20014;-59
2022/01/23 13:08:21;;;;;;;10.00;2.85;;;;;;;;;;7352660;19;20451;-58
2022/01/23 13:13:37;;;;;;;8.55;3.22;;;;;;;;;;7349764;19;20049;-57
2022/01/23 13:27:15;;;;;;;7.65;2.75;;;;;;;;;;7359936;19;20371;-59
2022/01/23 13:32:13;;;;;;;10.20;2.73;;;;;;;;;;7378652;19;20011;-59
2022/01/23 13:34:41;;;;;;;7.35;2.60;;;;;;;;;;7348031;19;20330;-59
2022/01/23 13:37:10;;;;;;;9.23;2.65;;;;;;;;;;7359930;19;20022;-58
2022/01/23 13:39:45;;;;;;;7.32;2.58;;;;;;;;;;7329654;19;20029;-59
2022/01/23 13:48:03;;;;;;;13.23;7.70;;;;;;;;;;7378589;19;20019;-59
2022/01/23 13:54:02;;;;;;;16.75;9.18;;;;;;;;;;7368258;19;20001;-59
2022/01/23 13:59:21;;;;;;;11.57;7.40;;;;;;;;;;7355946;19;20101;-60
2022/01/23 14:01:51;;;;;;;17.95;9.20;;;;;;;;;;7368547;19;20562;-58
2022/01/23 14:04:17;;;;;;;13.23;7.80;;;;;;;;;;7367611;19;20430;-58
2022/01/23 14:06:42;;;;;;;14.45;7.80;;;;;;;;;;7366358;19;20014;-60
2022/01/23 14:09:14;;;;;;;11.43;6.83;;;;;;;;;;7296707;19;19995;-58
2022/01/23 14:11:40;;;;;;;12.25;7.43;;;;;;;;;;7356098;19;20707;-59
2022/01/23 14:14:13;;;;;;;12.65;6.28;;;;;;;;;;7319914;19;20003;-60
2022/01/23 14:16:38;;;;;;;12.10;8.38;;;;;;;;;;7323314;19;20233;-58
2022/01/23 14:19:18;;;;;;;17.73;10.18;;;;;;;;;;7351369;19;20007;-58
2022/01/23 14:21:45;;;;;;;13.23;7.20;;;;;;;;;;7364689;19;20103;-59
2022/01/23 14:24:10;;;;;;;11.77;8.10;;;;;;;;;;7369337;19;20451;-59
2022/01/23 14:26:35;;;;;;;9.60;6.40;;;;;;;;;;7345873;19;20530;-59
2022/01/23 14:29:04;;;;;;;8.88;5.95;;;;;;;;;;7364572;19;20006;-59
2022/01/23 14:31:36;;;;;;;7.90;5.13;;;;;;;;;;7361689;19;20687;-59
2022/01/23 14:34:04;;;;;;;13.30;8.88;;;;;;;;;;7360921;19;20648;-59
2022/01/23 14:36:31;;;;;;;14.77;9.38;;;;;;;;;;7358698;19;20042;-59
2022/01/23 14:39:04;;;;;;;19.58;10.35;;;;;;;;;;7339819;19;20014;-58
2022/01/23 14:41:31;;;;;;;14.38;9.70;;;;;;;;;;7349594;19;20325;-59
2022/01/23 14:43:56;;;;;;;31.35;17.95;;;;;;;;;;7355305;19;20736;-59
2022/01/23 14:46:22;;;;;;;31.00;18.45;;;;;;;;;;7361536;19;20010;-59
2022/01/23 14:48:49;;;;;;;22.30;14.67;;;;;;;;;;7354848;19;20003;-55
2022/01/23 14:51:19;;;;;;;20.30;14.60;;;;;;;;;;7347210;19;20378;-55
2022/01/23 14:53:44;;;;;;;21.75;14.07;;;;;;;;;;7360483;19;20566;-56
2022/01/23 14:56:11;;;;;;;27.40;15.53;;;;;;;;;;7351257;19;20010;-55
2022/01/23 14:58:37;;;;;;;31.23;18.60;;;;;;;;;;7354528;19;20632;-54
2022/01/23 15:01:03;;;;;;;28.40;18.42;;;;;;;;;;7349495;19;22019;-54
2022/01/23 15:03:29;;;;;;;29.98;17.80;;;;;;;;;;7326144;19;20014;-54
2022/01/23 15:05:54;;;;;;;26.20;18.65;;;;;;;;;;7328130;19;20031;-53
2022/01/23 15:08:22;;;;;;;31.00;19.45;;;;;;;;;;7354652;19;20366;-60
2022/01/23 15:10:48;;;;;;;27.15;17.25;;;;;;;;;;7342371;19;20039;-59
2022/01/23 15:13:14;;;;;;;23.58;16.00;;;;;;;;;;7333929;19;19995;-59
2022/01/23 15:15:39;;;;;;;15.75;11.55;;;;;;;;;;7313966;19;20043;-58
2022/01/23 15:18:05;;;;;;;25.17;17.43;;;;;;;;;;7337350;19;20011;-58
2022/01/23 15:20:33;;;;;;;30.58;19.63;;;;;;;;;;7198064;19;20276;-59
2022/01/23 15:22:58;;;;;;;28.08;18.95;;;;;;;;;;7348203;19;20010;-58
2022/01/23 15:25:24;;;;;;;26.42;17.17;;;;;;;;;;7353961;19;20113;-58
2022/01/23 15:27:50;;;;;;;27.30;16.08;;;;;;;;;;7363636;19;20030;-58
2022/01/23 15:30:18;;;;;;;25.48;16.73;;;;;;;;;;7361189;19;20281;-60
2022/01/23 15:32:45;;;;;;;22.35;16.05;;;;;;;;;;7353203;19;20243;-58
2022/01/23 15:35:11;;;;;;;21.92;15.80;;;;;;;;;;7350808;19;20120;-58
2022/01/23 15:37:37;;;;;;;23.92;15.90;;;;;;;;;;7354403;19;20023;-58
2022/01/23 15:42:36;;;;;;;22.73;15.75;;;;;;;;;;7352741;19;20388;-58
2022/01/23 15:45:01;;;;;;;21.77;14.25;;;;;;;;;;7358266;19;20712;-59
2022/01/23 15:47:27;;;;;;;20.17;14.77;;;;;;;;;;7348163;19;20017;-59
2022/01/23 15:49:52;;;;;;;21.27;15.97;;;;;;;;;;7343393;19;20015;-58
2022/01/23 15:52:17;;;;;;;19.43;14.70;;;;;;;;;;7364069;19;20266;-59
2022/01/23 15:54:42;;;;;;;20.20;14.33;;;;;;;;;;7329194;19;20016;-58
2022/01/23 15:57:08;;;;;;;20.27;15.25;;;;;;;;;;7349150;19;20085;-58
2022/01/23 15:59:35;;;;;;;20.90;15.00;;;;;;;;;;7340959;19;20022;-58
2022/01/23 16:02:00;;;;;;;19.88;14.27;;;;;;;;;;7354979;19;20047;-58
2022/01/23 16:04:26;;;;;;;28.80;16.63;;;;;;;;;;7361371;19;20521;-58
2022/01/23 16:06:51;;;;;;;23.27;15.30;;;;;;;;;;7332539;19;20015;-57
2022/01/23 16:09:16;;;;;;;20.88;15.55;;;;;;;;;;7352871;19;19995;-59
2022/01/23 16:11:41;;;;;;;22.20;15.02;;;;;;;;;;7353173;19;20028;-59
2022/01/23 16:14:07;;;;;;;24.85;14.88;;;;;;;;;;7368400;19;20003;-54
2022/01/23 16:16:32;;;;;;;26.52;16.20;;;;;;;;;;7341360;19;20022;-58
2022/01/23 16:18:57;;;;;;;21.67;14.63;;;;;;;;;;7382109;19;19998;-54
2022/01/23 16:21:23;;;;;;;22.27;14.20;;;;;;;;;;7370375;19;20022;-52
2022/01/23 16:23:49;;;;;;;19.63;14.65;;;;;;;;;;7375084;19;19998;-59
2022/01/23 16:26:16;;;;;;;9.05;6.25;;;;;;;;;;7320954;19;20348;-59
2022/01/23 16:28:42;;;;;;;23.10;14.80;;;;;;;;;;7377532;19;20316;-58
2022/01/23 16:31:07;;;;;;;22.50;14.07;;;;;;;;;;7342283;19;20010;-54
2022/01/23 16:33:32;;;;;;;18.58;12.57;;;;;;;;;;7381905;19;20303;-57
2022/01/23 16:35:58;;;;;;;20.55;12.70;;;;;;;;;;7372648;19;20044;-57
2022/01/23 16:38:23;;;;;;;20.60;14.20;;;;;;;;;;7373403;19;20029;-58
2022/01/23 16:40:54;;;;;;;20.27;14.23;;;;;;;;;;7315129;19;20251;-59
2022/01/23 16:43:19;;;;;;;19.80;13.60;;;;;;;;;;7377845;19;20014;-58
2022/01/23 16:45:45;;;;;;;17.50;12.03;;;;;;;;;;7368915;19;20003;-58
2022/01/23 16:48:10;;;;;;;23.55;13.77;;;;;;;;;;7356267;19;20908;-60
2022/01/23 16:50:38;;;;;;;27.88;14.82;;;;;;;;;;7359627;19;20014;-58
2022/01/23 16:53:03;;;;;;;16.77;11.00;;;;;;;;;;7379656;19;20313;-55
2022/01/23 16:55:28;;;;;;;19.55;12.63;;;;;;;;;;7357356;19;20027;-67
2022/01/23 16:57:54;;;;;;;24.58;15.07;;;;;;;;;;7365962;19;20470;-57
2022/01/23 17:00:19;;;;;;;26.08;14.43;;;;;;;;;;7360644;19;20031;-57
2022/01/23 17:02:46;;;;;;;22.10;14.13;;;;;;;;;;7367779;19;20015;-58
2022/01/23 17:05:11;;;;;;;21.13;13.90;;;;;;;;;;7344468;19;20243;-56
2022/01/23 17:07:36;;;;;;;18.13;11.40;;;;;;;;;;7361791;19;20029;-55
2022/01/23 17:12:34;;;;;;;20.75;12.05;;;;;;;;;;7370226;19;20032;-52
2022/01/23 17:14:59;;;;;;;22.80;15.00;;;;;;;;;;7375560;19;20674;-58
2022/01/23 17:17:25;;;;;;;26.10;14.52;;;;;;;;;;7371127;19;20006;-59
2022/01/23 17:19:50;;;;;;;29.30;15.60;;;;;;;;;;7365973;19;20010;-56
2022/01/23 17:22:15;;;;;;;25.37;15.67;;;;;;;;;;7343766;19;20005;-64
2022/01/23 17:24:40;;;;;;;23.75;13.80;;;;;;;;;;7353734;19;20286;-60
2022/01/23 17:27:06;;;;;;;28.08;15.15;;;;;;;;;;7352544;19;20554;-62
2022/01/23 17:29:31;;;;;;;25.42;14.07;;;;;;;;;;7367282;19;20494;-59
2022/01/23 17:31:56;;;;;;;25.55;15.55;;;;;;;;;;7376211;19;21057;-59
2022/01/23 17:34:22;;;;;;;23.80;14.05;;;;;;;;;;7370137;19;20014;-60
2022/01/23 17:36:47;;;;;;;18.75;12.02;;;;;;;;;;7366291;19;20021;-59
2022/01/23 17:39:13;;;;;;;21.60;13.60;;;;;;;;;;7345848;19;20011;-61
2022/01/23 17:41:40;;;;;;;26.15;14.77;;;;;;;;;;7378737;19;20252;-56
2022/01/23 17:44:05;;;;;;;26.60;15.63;;;;;;;;;;7357934;19;20018;-59
2022/01/23 17:46:33;;;;;;;30.08;16.50;;;;;;;;;;7371295;19;20027;-64
2022/01/23 17:49:04;;;;;;;23.63;13.43;;;;;;;;;;7359503;19;20113;-61
2022/01/23 17:51:30;;;;;;;25.38;13.30;;;;;;;;;;7356900;19;20025;-64
2022/01/23 17:53:58;;;;;;;26.02;14.65;;;;;;;;;;7350513;19;20692;-63
2022/01/23 17:56:24;;;;;;;22.52;14.02;;;;;;;;;;7345638;19;20010;-59
2022/01/23 17:58:49;;;;;;;22.88;13.73;;;;;;;;;;7364917;19;20677;-60
2022/01/23 18:01:14;;;;;;;26.23;14.57;;;;;;;;;;7366413;19;20017;-57
2022/01/23 18:03:40;;;;;;;25.07;15.07;;;;;;;;;;7377055;19;20247;-60
2022/01/23 18:06:10;;;;;;;28.77;15.68;;;;;;;;;;7354543;19;20702;-62
2022/01/23 18:08:35;;;;;;;24.50;14.23;;;;;;;;;;7363027;19;20589;-60
2022/01/23 18:11:00;;;;;;;30.63;15.40;;;;;;;;;;7363764;19;20020;-61
2022/01/23 18:13:25;;;;;;;25.88;15.43;;;;;;;;;;7346405;19;20259;-62
2022/01/23 18:15:51;;;;;;;27.40;15.68;;;;;;;;;;7370979;19;20031;-62
2022/01/23 18:18:17;;;;;;;25.77;14.65;;;;;;;;;;7367463;19;20018;-59
2022/01/23 18:20:42;;;;;;;25.35;14.50;;;;;;;;;;7358175;19;20014;-60